TimeEST,TemperatureF,Dew PointF,Humidity,Sea Level PressureIn,VisibilityMPH,Wind Direction,Wind SpeedMPH,Gust SpeedMPH,PrecipitationIn,Events,Conditions,WindDirDegrees,DateUTC
12:53 AM,39.9,30.9,70,29.92,10.0,WNW,4.6,-,N/A,,Clear,300,2013-11-08 05:53:00
1:53 AM,34.0,28.0,79,29.93,10.0,West,3.5,-,N/A,,Clear,260,2013-11-08 06:53:00
2:53 AM,34.0,28.9,82,29.94,10.0,West,5.8,-,N/A,,Scattered Clouds,270,2013-11-08 07:53:00
3:53 AM,33.1,28.0,82,29.96,10.0,West,5.8,-,N/A,,Clear,280,2013-11-08 08:53:00
4:53 AM,35.1,30.0,82,29.97,10.0,West,6.9,-,N/A,,Clear,280,2013-11-08 09:53:00
5:53 AM,34.0,30.0,85,29.99,10.0,West,5.8,-,N/A,,Overcast,260,2013-11-08 10:53:00
6:53 AM,37.0,30.9,79,30.00,10.0,West,4.6,-,N/A,,Overcast,280,2013-11-08 11:53:00
7:53 AM,42.1,32.0,67,30.01,10.0,West,6.9,-,N/A,,Overcast,280,2013-11-08 12:53:00
8:53 AM,45.0,32.0,60,30.02,10.0,West,15.0,24.2,N/A,,Mostly Cloudy,280,2013-11-08 13:53:00
9:53 AM,46.9,28.9,50,30.02,10.0,WNW,18.4,23.0,N/A,,Clear,300,2013-11-08 14:53:00
10:53 AM,48.0,28.9,48,30.00,10.0,NW,13.8,-,N/A,,Clear,320,2013-11-08 15:53:00
11:53 AM,48.9,28.0,44,29.99,10.0,NW,16.1,26.5,N/A,,Partly Cloudy,320,2013-11-08 16:53:00
12:53 PM,48.9,27.0,43,29.98,10.0,NW,17.3,25.3,N/A,,Scattered Clouds,320,2013-11-08 17:53:00
1:53 PM,48.0,25.0,41,29.99,10.0,WNW,18.4,28.8,N/A,,Scattered Clouds,290,2013-11-08 18:53:00
2:53 PM,48.9,25.0,39,30.01,10.0,WNW,18.4,28.8,N/A,,Mostly Cloudy,300,2013-11-08 19:53:00
3:53 PM,48.0,24.1,39,30.04,10.0,WNW,16.1,27.6,N/A,,Mostly Cloudy,290,2013-11-08 20:53:00
4:53 PM,46.0,25.0,44,30.06,10.0,NW,16.1,21.9,N/A,,Mostly Cloudy,310,2013-11-08 21:53:00
5:53 PM,44.1,26.1,49,30.10,10.0,WNW,10.4,19.6,0.00,,Mostly Cloudy,300,2013-11-08 22:53:00
6:53 PM,44.1,24.1,45,30.12,10.0,NW,23.0,29.9,N/A,,Scattered Clouds,310,2013-11-08 23:53:00
7:53 PM,43.0,23.0,45,30.14,10.0,NW,15.0,23.0,N/A,,Partly Cloudy,310,2013-11-09 00:53:00
8:53 PM,42.1,24.1,49,30.17,10.0,NW,5.8,-,N/A,,Mostly Cloudy,310,2013-11-09 01:53:00
9:53 PM,42.1,24.1,49,30.18,10.0,WNW,11.5,-,N/A,,Mostly Cloudy,300,2013-11-09 02:53:00
10:53 PM,41.0,25.0,53,30.19,10.0,WNW,9.2,-,N/A,,Partly Cloudy,290,2013-11-09 03:53:00
11:53 PM,37.9,24.1,57,30.20,10.0,West,3.5,-,N/A,,Partly Cloudy,270,2013-11-09 04:53:00